createdAt,value
2022-08-19T00:00:15.611Z,0.00
2022-08-19T00:01:15.640Z,0.00
2022-08-19T00:02:15.618Z,0.00
2022-08-19T00:03:15.621Z,0.00
2022-08-19T00:04:15.656Z,0.00
2022-08-19T00:05:15.587Z,0.00
2022-08-19T00:06:15.600Z,0.00
2022-08-19T00:07:15.577Z,0.00
2022-08-19T00:08:15.586Z,0.00
2022-08-19T00:09:15.559Z,0.00
2022-08-19T00:10:15.573Z,0.00
2022-08-19T00:11:24.420Z,0.00
2022-08-19T00:12:15.566Z,0.00
2022-08-19T00:13:15.568Z,0.00
2022-08-19T00:14:15.556Z,0.00
2022-08-19T00:15:15.543Z,0.00
2022-08-19T00:16:15.547Z,0.00
2022-08-19T00:17:15.561Z,0.00
2022-08-19T00:18:15.736Z,0.00
2022-08-19T00:19:15.539Z,0.00
2022-08-19T00:20:15.537Z,0.00
2022-08-19T00:21:15.523Z,0.00
2022-08-19T00:22:15.571Z,0.00
2022-08-19T00:23:15.533Z,0.00
2022-08-19T00:24:15.542Z,0.00
2022-08-19T00:25:15.758Z,0.00
2022-08-19T00:26:15.496Z,0.00
2022-08-19T00:27:26.221Z,0.00
2022-08-19T00:28:15.482Z,0.00
2022-08-19T00:29:15.486Z,0.00
2022-08-19T00:30:15.518Z,0.00
2022-08-19T00:31:15.482Z,0.00
2022-08-19T00:32:15.476Z,0.00
2022-08-19T00:33:15.499Z,0.00
2022-08-19T00:34:15.471Z,0.00
2022-08-19T00:35:15.453Z,0.00
2022-08-19T00:36:15.473Z,0.00
2022-08-19T00:37:15.451Z,0.00
2022-08-19T00:38:15.455Z,0.00
2022-08-19T00:39:15.434Z,0.00
2022-08-19T00:40:15.452Z,0.00
2022-08-19T00:41:15.452Z,0.00
2022-08-19T00:42:15.839Z,0.00
2022-08-19T00:43:15.421Z,0.00
2022-08-19T00:44:15.407Z,0.00
2022-08-19T00:45:15.629Z,0.00
2022-08-19T00:46:15.431Z,0.00
2022-08-19T00:47:15.454Z,0.00
2022-08-19T00:48:15.421Z,0.00
2022-08-19T00:49:15.480Z,0.00
2022-08-19T00:50:15.401Z,0.00
2022-08-19T00:51:15.403Z,0.00
2022-08-19T00:52:15.425Z,0.00
2022-08-19T00:53:15.388Z,0.00
2022-08-19T00:54:15.372Z,0.00
2022-08-19T00:55:15.373Z,0.00
2022-08-19T00:56:15.378Z,0.00
2022-08-19T00:57:15.365Z,0.00
2022-08-19T00:58:15.531Z,0.00
2022-08-19T00:59:15.345Z,0.00
2022-08-19T01:00:15.380Z,0.00
2022-08-19T01:01:15.417Z,0.00
2022-08-19T01:02:15.390Z,0.00
2022-08-19T01:03:15.333Z,0.00
2022-08-19T01:04:15.331Z,0.00
2022-08-19T01:05:15.523Z,0.00
2022-08-19T01:06:15.335Z,0.00
2022-08-19T01:07:19.604Z,0.00
2022-08-19T01:08:15.334Z,0.00
2022-08-19T01:09:15.309Z,0.00
2022-08-19T01:10:15.304Z,0.00
2022-08-19T01:11:15.301Z,0.00
2022-08-19T01:12:15.347Z,0.00
2022-08-19T01:13:15.300Z,0.00
2022-08-19T01:14:15.325Z,0.00
2022-08-19T01:15:15.281Z,0.00
2022-08-19T01:16:15.287Z,0.00
2022-08-19T01:17:15.285Z,0.00
2022-08-19T01:18:15.267Z,0.00
2022-08-19T01:19:15.417Z,0.00
2022-08-19T01:20:15.306Z,0.00
2022-08-19T01:21:15.267Z,0.00
2022-08-19T01:22:15.432Z,0.00
2022-08-19T01:23:15.311Z,0.00
2022-08-19T01:24:15.495Z,0.00
2022-08-19T01:25:16.286Z,0.00
2022-08-19T01:26:16.182Z,0.00
2022-08-19T01:27:16.461Z,0.00
2022-08-19T01:28:16.231Z,0.00
2022-08-19T01:29:16.218Z,0.00
2022-08-19T01:30:15.641Z,0.00
2022-08-19T01:31:26.846Z,0.00
2022-08-19T01:32:33.298Z,0.00
2022-08-19T01:33:15.613Z,0.00
2022-08-19T01:34:15.867Z,0.00
2022-08-19T01:35:15.796Z,0.00
2022-08-19T01:36:15.675Z,0.00
2022-08-19T01:37:27.065Z,0.00
2022-08-19T01:38:17.096Z,0.00
2022-08-19T01:39:16.086Z,0.00
2022-08-19T01:40:15.491Z,0.00
2022-08-19T01:41:16.791Z,0.00
2022-08-19T01:42:15.905Z,0.00
2022-08-19T01:43:16.898Z,0.00
2022-08-19T01:44:19.352Z,0.00
2022-08-19T01:45:16.075Z,0.00
2022-08-19T01:46:15.643Z,0.00
2022-08-19T01:47:15.257Z,0.00
2022-08-19T01:48:16.238Z,0.00
2022-08-19T01:49:17.810Z,0.00
2022-08-19T01:50:15.905Z,0.00
2022-08-19T01:51:16.503Z,0.00
2022-08-19T01:52:16.555Z,0.00
2022-08-19T01:53:16.639Z,0.00
2022-08-19T01:54:27.185Z,0.00
2022-08-19T01:55:17.870Z,0.00
2022-08-19T01:56:16.888Z,0.00
2022-08-19T01:57:16.111Z,0.00
2022-08-19T01:58:16.502Z,0.00
2022-08-19T01:59:16.792Z,0.00
2022-08-19T02:00:16.088Z,0.00
2022-08-19T02:01:16.103Z,0.00
2022-08-19T02:02:16.030Z,0.00
2022-08-19T02:03:15.527Z,0.00
2022-08-19T02:04:16.692Z,0.00
2022-08-19T02:05:15.911Z,0.00
2022-08-19T02:06:16.377Z,0.00
2022-08-19T02:07:16.267Z,0.00
2022-08-19T02:08:16.553Z,0.00
2022-08-19T02:09:16.025Z,0.00
2022-08-19T02:10:17.262Z,0.00
2022-08-19T02:11:16.681Z,0.00
2022-08-19T02:12:17.276Z,0.00
2022-08-19T02:13:17.687Z,0.00
2022-08-19T02:14:15.637Z,0.00
2022-08-19T02:15:16.003Z,0.00
2022-08-19T02:16:15.111Z,0.00
2022-08-19T02:17:15.632Z,0.00
2022-08-19T02:18:15.754Z,0.00
2022-08-19T02:19:15.895Z,0.00
2022-08-19T02:20:15.244Z,0.00
2022-08-19T02:21:15.419Z,0.00
2022-08-19T02:22:15.909Z,0.00
2022-08-19T02:23:16.136Z,0.00
2022-08-19T02:24:15.276Z,0.00
2022-08-19T02:25:15.603Z,0.00
2022-08-19T02:26:16.339Z,0.00
2022-08-19T02:27:15.957Z,0.00
2022-08-19T02:28:18.819Z,0.00
2022-08-19T02:29:16.716Z,0.00
2022-08-19T02:30:15.965Z,0.00
2022-08-19T02:31:15.231Z,0.00
2022-08-19T02:32:15.049Z,0.00
2022-08-19T02:33:15.263Z,0.00
2022-08-19T02:34:16.625Z,0.00
2022-08-19T02:35:15.156Z,0.00
2022-08-19T02:36:17.217Z,0.00
2022-08-19T02:37:17.177Z,0.00
2022-08-19T02:38:15.299Z,0.00
2022-08-19T02:39:15.187Z,0.00
2022-08-19T02:40:15.326Z,0.00
2022-08-19T02:41:15.334Z,0.00
2022-08-19T02:42:14.875Z,0.00
2022-08-19T02:43:15.216Z,0.00
2022-08-19T02:44:29.968Z,0.00
2022-08-19T02:45:15.115Z,0.00
2022-08-19T02:46:15.159Z,0.00
2022-08-19T02:47:15.247Z,0.00
2022-08-19T02:48:21.558Z,0.00
2022-08-19T02:49:15.098Z,0.00
2022-08-19T02:50:15.142Z,0.00
2022-08-19T02:51:15.161Z,0.00
2022-08-19T02:52:15.159Z,0.00
2022-08-19T02:53:14.848Z,0.00
2022-08-19T02:54:15.074Z,0.00
2022-08-19T02:55:15.272Z,0.00
2022-08-19T02:56:15.017Z,0.00
2022-08-19T02:57:15.121Z,0.00
2022-08-19T02:58:15.050Z,0.00
2022-08-19T02:59:15.414Z,0.00
2022-08-19T03:00:15.026Z,0.00
2022-08-19T03:01:15.039Z,0.00
2022-08-19T03:02:15.094Z,0.00
2022-08-19T03:03:15.023Z,0.00
2022-08-19T03:04:15.135Z,0.00
2022-08-19T03:05:15.002Z,0.00
2022-08-19T03:06:15.086Z,0.00
2022-08-19T03:07:15.152Z,0.00
2022-08-19T03:08:15.003Z,0.00
2022-08-19T03:09:14.787Z,0.00
2022-08-19T03:10:14.828Z,0.00
2022-08-19T03:11:14.745Z,0.00
2022-08-19T03:12:14.765Z,0.00
2022-08-19T03:13:14.765Z,0.00
2022-08-19T03:14:14.743Z,0.00
2022-08-19T03:15:14.743Z,0.00
2022-08-19T03:16:14.760Z,0.00
2022-08-19T03:17:14.737Z,0.00
2022-08-19T03:18:14.746Z,0.00
2022-08-19T03:19:14.722Z,0.00
2022-08-19T03:20:14.720Z,0.00
2022-08-19T03:21:14.698Z,0.00
2022-08-19T03:22:14.697Z,0.00
2022-08-19T03:23:14.743Z,0.00
2022-08-19T03:24:14.683Z,0.00
2022-08-19T03:25:14.728Z,0.00
2022-08-19T03:26:16.436Z,0.00
2022-08-19T03:27:14.693Z,0.00
2022-08-19T03:28:14.685Z,0.00
2022-08-19T03:29:14.664Z,0.00
2022-08-19T03:30:14.663Z,0.00
2022-08-19T03:31:43.552Z,0.00
2022-08-19T03:32:27.894Z,0.00
2022-08-19T03:33:18.036Z,0.00
2022-08-19T03:34:14.643Z,0.00
2022-08-19T03:35:14.650Z,0.00
2022-08-19T03:36:14.628Z,0.00
2022-08-19T03:37:14.637Z,0.00
2022-08-19T03:38:14.635Z,0.00
2022-08-19T03:39:14.616Z,0.00
2022-08-19T03:40:16.506Z,0.00
2022-08-19T03:41:14.606Z,0.00
2022-08-19T03:42:32.007Z,0.00
2022-08-19T03:43:14.629Z,0.00
2022-08-19T03:44:18.509Z,0.00
2022-08-19T03:45:14.616Z,0.00
2022-08-19T03:46:14.604Z,0.00
2022-08-19T03:47:14.593Z,0.00
2022-08-19T03:48:14.598Z,0.00
2022-08-19T03:49:14.841Z,0.00
2022-08-19T03:50:14.554Z,0.00
2022-08-19T03:51:14.555Z,0.00
2022-08-19T03:52:14.562Z,0.00
2022-08-19T03:53:14.575Z,0.00
2022-08-19T03:54:14.553Z,0.00
2022-08-19T03:55:14.531Z,0.00
2022-08-19T03:56:14.529Z,0.00
2022-08-19T03:57:14.527Z,0.00
2022-08-19T03:58:14.513Z,0.00
2022-08-19T03:59:14.555Z,0.00
2022-08-19T04:00:14.513Z,0.00
2022-08-19T04:01:14.606Z,0.00
2022-08-19T04:02:14.508Z,0.00
2022-08-19T04:03:14.520Z,0.00
2022-08-19T04:04:14.539Z,0.00
2022-08-19T04:05:14.546Z,0.00
2022-08-19T04:06:14.489Z,0.00
2022-08-19T04:07:14.487Z,0.00
2022-08-19T04:08:14.530Z,0.00
2022-08-19T04:09:14.473Z,0.00
2022-08-19T04:10:14.472Z,0.00
2022-08-19T04:11:14.466Z,0.00
2022-08-19T04:12:14.458Z,0.00
2022-08-19T04:13:14.455Z,0.00
2022-08-19T04:14:14.475Z,0.00
2022-08-19T04:15:14.478Z,0.00
2022-08-19T04:16:14.451Z,0.00
2022-08-19T04:17:14.429Z,0.00
2022-08-19T04:18:14.468Z,0.00
2022-08-19T04:19:14.436Z,0.00
2022-08-19T04:20:14.432Z,0.00
2022-08-19T04:21:14.437Z,0.00
2022-08-19T04:22:14.400Z,0.00
2022-08-19T04:23:14.434Z,0.00
2022-08-19T04:24:14.428Z,0.00
2022-08-19T04:25:14.443Z,0.00
2022-08-19T04:26:14.418Z,0.00
2022-08-19T04:27:14.397Z,0.00
2022-08-19T04:28:14.397Z,0.00
2022-08-19T04:29:14.386Z,0.00
2022-08-19T04:30:14.391Z,0.00
2022-08-19T04:31:14.419Z,0.00
2022-08-19T04:32:14.420Z,0.00
2022-08-19T04:33:14.397Z,0.00
2022-08-19T04:34:14.383Z,0.00
2022-08-19T04:35:16.937Z,0.00
2022-08-19T04:36:14.380Z,0.00
2022-08-19T04:37:14.349Z,0.00
2022-08-19T04:38:14.363Z,0.00
2022-08-19T04:39:14.370Z,0.00
2022-08-19T04:40:14.443Z,0.00
2022-08-19T04:41:14.335Z,0.00
2022-08-19T04:42:14.328Z,0.00
2022-08-19T04:43:14.384Z,0.00
2022-08-19T04:44:14.315Z,0.00
2022-08-19T04:45:14.304Z,0.00
2022-08-19T04:46:28.513Z,0.00
2022-08-19T04:47:14.339Z,0.00
2022-08-19T04:48:26.194Z,0.00
2022-08-19T04:49:14.325Z,0.00
2022-08-19T04:50:14.282Z,0.00
2022-08-19T04:51:14.291Z,0.00
2022-08-19T04:52:14.293Z,0.00
2022-08-19T04:53:14.288Z,0.00
2022-08-19T04:54:14.261Z,0.00
2022-08-19T04:55:14.260Z,0.00
2022-08-19T04:56:14.264Z,0.00
2022-08-19T04:57:14.270Z,0.00
2022-08-19T04:58:14.250Z,0.00
2022-08-19T04:59:14.271Z,0.00
2022-08-19T05:00:14.244Z,0.00
2022-08-19T05:01:14.295Z,0.00
2022-08-19T05:02:14.255Z,0.00
2022-08-19T05:03:14.255Z,0.00
2022-08-19T05:04:14.217Z,0.00
2022-08-19T05:05:14.245Z,0.00
2022-08-19T05:06:14.213Z,0.00
2022-08-19T05:07:14.219Z,0.00
2022-08-19T05:08:15.398Z,0.00
2022-08-19T05:09:14.236Z,0.00
2022-08-19T05:10:14.204Z,5.63
2022-08-19T05:11:14.280Z,5.63
2022-08-19T05:12:14.201Z,5.63
2022-08-19T05:13:14.198Z,5.63
2022-08-19T05:14:14.175Z,5.63
2022-08-19T05:15:14.166Z,5.63
2022-08-19T05:16:14.225Z,5.63
2022-08-19T05:17:33.599Z,5.63
2022-08-19T05:18:14.170Z,5.63
2022-08-19T05:19:14.179Z,5.63
2022-08-19T05:20:14.174Z,5.63
2022-08-19T05:21:14.158Z,5.63
2022-08-19T05:22:14.169Z,5.63
2022-08-19T05:23:21.875Z,5.63
2022-08-19T05:24:14.162Z,5.63
2022-08-19T05:25:14.261Z,5.63
2022-08-19T05:26:14.156Z,5.63
2022-08-19T05:27:14.124Z,5.63
2022-08-19T05:28:14.131Z,5.63
2022-08-19T05:29:14.119Z,5.63
2022-08-19T05:30:14.127Z,5.63
2022-08-19T05:31:14.132Z,5.63
2022-08-19T05:32:14.126Z,5.63
2022-08-19T05:33:14.129Z,5.63
2022-08-19T05:34:20.067Z,5.63
2022-08-19T05:35:14.090Z,5.63
2022-08-19T05:36:14.109Z,5.63
2022-08-19T05:37:14.122Z,5.63
2022-08-19T05:38:14.107Z,5.63
2022-08-19T05:39:14.107Z,5.63
2022-08-19T05:40:14.157Z,5.63
2022-08-19T05:41:14.091Z,11.25
2022-08-19T05:42:14.090Z,11.25
2022-08-19T05:43:14.072Z,11.25
2022-08-19T05:44:14.046Z,11.25
2022-08-19T05:45:14.248Z,11.25
2022-08-19T05:46:14.071Z,11.25
2022-08-19T05:47:14.041Z,11.25
2022-08-19T05:48:14.052Z,11.25
2022-08-19T05:49:14.050Z,11.25
2022-08-19T05:50:14.029Z,11.25
2022-08-19T05:51:14.049Z,11.25
2022-08-19T05:52:14.027Z,11.25
2022-08-19T05:53:14.031Z,11.25
2022-08-19T05:54:14.009Z,11.25
2022-08-19T05:55:14.014Z,11.25
2022-08-19T05:56:14.001Z,11.25
2022-08-19T05:57:14.009Z,11.25
2022-08-19T05:58:14.007Z,11.25
2022-08-19T05:59:13.995Z,5.63
2022-08-19T06:00:13.993Z,5.63
2022-08-19T06:01:13.974Z,5.63
2022-08-19T06:02:14.015Z,5.63
2022-08-19T06:03:13.967Z,5.63
2022-08-19T06:04:13.958Z,11.25
2022-08-19T06:05:13.951Z,11.25
2022-08-19T06:06:13.942Z,11.25
2022-08-19T06:07:13.972Z,11.25
2022-08-19T06:08:13.960Z,11.25
2022-08-19T06:09:13.958Z,11.25
2022-08-19T06:10:13.943Z,11.25
2022-08-19T06:11:13.932Z,16.88
2022-08-19T06:12:13.937Z,16.88
2022-08-19T06:13:13.914Z,11.25
2022-08-19T06:14:16.509Z,11.25
2022-08-19T06:15:13.920Z,11.25
2022-08-19T06:16:13.902Z,11.25
2022-08-19T06:17:13.901Z,11.25
2022-08-19T06:18:13.909Z,11.25
2022-08-19T06:19:13.895Z,11.25
2022-08-19T06:20:13.890Z,11.25
2022-08-19T06:21:14.053Z,11.25
2022-08-19T06:22:13.883Z,11.25
2022-08-19T06:23:16.143Z,11.25
2022-08-19T06:24:13.894Z,11.25
2022-08-19T06:25:13.890Z,11.25
2022-08-19T06:26:13.863Z,11.25
2022-08-19T06:27:13.875Z,11.25
2022-08-19T06:28:15.372Z,11.25
2022-08-19T06:29:23.696Z,11.25
2022-08-19T06:30:13.861Z,11.25
2022-08-19T06:31:13.847Z,16.88
2022-08-19T06:32:13.841Z,16.88
2022-08-19T06:33:13.859Z,16.88
2022-08-19T06:34:13.851Z,16.88
2022-08-19T06:35:13.843Z,16.88
2022-08-19T06:36:13.840Z,11.25
2022-08-19T06:37:13.828Z,11.25
2022-08-19T06:38:13.821Z,11.25
2022-08-19T06:39:13.812Z,11.25
2022-08-19T06:40:13.819Z,11.25
2022-08-19T06:41:13.799Z,11.25
2022-08-19T06:42:13.805Z,11.25
2022-08-19T06:43:13.808Z,11.25
2022-08-19T06:44:13.798Z,11.25
2022-08-19T06:45:13.828Z,11.25
2022-08-19T06:46:14.742Z,11.25
2022-08-19T06:47:14.860Z,11.25
2022-08-19T06:48:13.784Z,11.25
2022-08-19T06:49:13.760Z,5.63
2022-08-19T06:50:13.768Z,5.63
2022-08-19T06:51:13.786Z,5.63
2022-08-19T06:52:14.210Z,5.63
2022-08-19T06:53:13.875Z,5.63
2022-08-19T06:54:19.344Z,5.63
2022-08-19T06:55:13.751Z,5.63
2022-08-19T06:56:13.732Z,5.63
2022-08-19T06:57:13.734Z,5.63
2022-08-19T06:58:13.722Z,5.63
2022-08-19T06:59:13.738Z,5.63
2022-08-19T07:00:13.778Z,5.63
2022-08-19T07:01:13.714Z,5.63
2022-08-19T07:02:13.760Z,0.00
2022-08-19T07:03:14.159Z,0.00
2022-08-19T07:04:13.700Z,0.00
2022-08-19T07:05:13.693Z,0.00
2022-08-19T07:06:32.572Z,0.00
2022-08-19T07:07:20.027Z,0.00
2022-08-19T07:08:13.689Z,0.00
2022-08-19T07:09:13.679Z,0.00
2022-08-19T07:10:13.683Z,0.00
2022-08-19T07:11:13.679Z,0.00
2022-08-19T07:12:13.667Z,0.00
2022-08-19T07:13:13.661Z,5.63
2022-08-19T07:14:19.055Z,5.63
2022-08-19T07:15:13.651Z,5.63
2022-08-19T07:16:13.648Z,5.63
2022-08-19T07:17:13.638Z,5.63
2022-08-19T07:18:13.650Z,5.63
2022-08-19T07:19:16.282Z,5.63
2022-08-19T07:20:13.648Z,5.63
2022-08-19T07:21:13.624Z,5.63
2022-08-19T07:22:13.611Z,5.63
2022-08-19T07:23:16.064Z,5.63
2022-08-19T07:24:13.613Z,5.63
2022-08-19T07:25:13.600Z,5.63
2022-08-19T07:26:13.602Z,5.63
2022-08-19T07:27:15.284Z,5.63
2022-08-19T07:28:23.962Z,5.63
2022-08-19T07:29:13.761Z,5.63
2022-08-19T07:30:13.589Z,5.63
2022-08-19T07:31:13.572Z,5.63
2022-08-19T07:32:13.666Z,5.63
2022-08-19T07:33:13.794Z,5.63
2022-08-19T07:34:13.571Z,5.63
2022-08-19T07:35:13.569Z,5.63
2022-08-19T07:36:13.554Z,11.25
2022-08-19T07:37:13.566Z,11.25
2022-08-19T07:38:13.554Z,11.25
2022-08-19T07:39:13.543Z,11.25
2022-08-19T07:40:13.582Z,11.25
2022-08-19T07:41:13.531Z,11.25
2022-08-19T07:42:13.622Z,11.25
2022-08-19T07:43:16.941Z,11.25
2022-08-19T07:44:13.550Z,11.25
2022-08-19T07:45:13.531Z,11.25
2022-08-19T07:46:13.591Z,16.88
2022-08-19T07:47:47.701Z,16.88
2022-08-19T07:48:13.502Z,16.88
2022-08-19T07:49:13.498Z,16.88
2022-08-19T07:50:13.500Z,16.88
2022-08-19T07:51:14.339Z,16.88
2022-08-19T07:52:13.487Z,16.88
2022-08-19T07:53:13.484Z,16.88
2022-08-19T07:54:13.478Z,22.50
2022-08-19T07:55:42.620Z,22.50
2022-08-19T07:56:13.475Z,22.50
2022-08-19T07:57:13.470Z,22.50
2022-08-19T07:58:13.472Z,22.50
2022-08-19T07:59:13.451Z,22.50
2022-08-19T08:00:13.463Z,22.50
2022-08-19T08:01:13.448Z,22.50
2022-08-19T08:02:13.443Z,22.50
2022-08-19T08:03:13.432Z,22.50
2022-08-19T08:04:13.460Z,22.50
2022-08-19T08:05:13.636Z,16.88
2022-08-19T08:06:13.421Z,16.88
2022-08-19T08:07:13.422Z,16.88
2022-08-19T08:08:13.419Z,16.88
2022-08-19T08:09:13.480Z,16.88
2022-08-19T08:10:20.533Z,16.88
2022-08-19T08:11:13.402Z,16.88
2022-08-19T08:12:32.780Z,16.88
2022-08-19T08:13:13.482Z,16.88
2022-08-19T08:14:29.554Z,16.88
2022-08-19T08:15:13.591Z,16.88
2022-08-19T08:16:13.954Z,16.88
2022-08-19T08:17:13.376Z,16.88
2022-08-19T08:18:13.372Z,16.88
2022-08-19T08:19:20.200Z,16.88
2022-08-19T08:20:13.575Z,16.88
2022-08-19T08:21:13.359Z,16.88
2022-08-19T08:22:13.357Z,16.88
2022-08-19T08:23:13.352Z,16.88
2022-08-19T08:24:13.347Z,16.88
2022-08-19T08:25:13.341Z,16.88
2022-08-19T08:26:13.342Z,16.88
2022-08-19T08:27:13.334Z,16.88
2022-08-19T08:28:17.746Z,16.88
2022-08-19T08:29:13.333Z,16.88
2022-08-19T08:30:13.318Z,16.88
2022-08-19T08:31:13.315Z,11.25
2022-08-19T08:32:14.954Z,11.25
2022-08-19T08:33:13.360Z,16.88
2022-08-19T08:34:13.298Z,16.88
2022-08-19T08:35:13.505Z,16.88
2022-08-19T08:36:13.300Z,16.88
2022-08-19T08:37:13.290Z,16.88
2022-08-19T08:38:13.493Z,16.88
2022-08-19T08:39:13.292Z,16.88
2022-08-19T08:40:13.539Z,11.25
2022-08-19T08:41:13.281Z,11.25
2022-08-19T08:42:17.886Z,11.25
2022-08-19T08:43:13.267Z,11.25
2022-08-19T08:44:19.989Z,11.25
2022-08-19T08:45:13.262Z,11.25
2022-08-19T08:46:13.260Z,11.25
2022-08-19T08:47:13.257Z,11.25
2022-08-19T08:48:22.023Z,11.25
2022-08-19T08:49:13.239Z,11.25
2022-08-19T08:50:13.236Z,11.25
2022-08-19T08:51:13.239Z,11.25
2022-08-19T08:52:13.236Z,11.25
2022-08-19T08:53:13.230Z,11.25
2022-08-19T08:54:13.218Z,11.25
2022-08-19T08:55:13.209Z,11.25
2022-08-19T08:56:13.216Z,11.25
2022-08-19T08:57:13.206Z,11.25
2022-08-19T08:58:13.209Z,11.25
2022-08-19T08:59:13.209Z,11.25
2022-08-19T09:00:15.104Z,11.25
2022-08-19T09:01:13.290Z,16.88
2022-08-19T09:02:13.193Z,16.88
2022-08-19T09:03:13.183Z,16.88
2022-08-19T09:04:13.186Z,16.88
2022-08-19T09:05:16.741Z,16.88
2022-08-19T09:06:13.168Z,16.88
2022-08-19T09:07:18.030Z,16.88
2022-08-19T09:08:13.785Z,16.88
2022-08-19T09:09:13.162Z,16.88
2022-08-19T09:10:13.160Z,16.88
2022-08-19T09:11:13.163Z,16.88
2022-08-19T09:12:13.156Z,16.88
2022-08-19T09:13:13.147Z,16.88
2022-08-19T09:14:35.047Z,16.88
2022-08-19T09:15:13.134Z,16.88
2022-08-19T09:16:13.127Z,16.88
2022-08-19T09:17:13.121Z,16.88
2022-08-19T09:18:15.395Z,16.88
2022-08-19T09:19:13.105Z,16.88
2022-08-19T09:20:13.110Z,16.88
2022-08-19T09:21:13.111Z,16.88
2022-08-19T09:22:13.100Z,22.50
2022-08-19T09:23:13.103Z,22.50
2022-08-19T09:24:13.094Z,22.50
2022-08-19T09:25:13.287Z,28.13
2022-08-19T09:26:13.082Z,28.13
2022-08-19T09:27:18.381Z,28.13
2022-08-19T09:28:22.610Z,33.75
2022-08-19T09:29:13.078Z,33.75
2022-08-19T09:30:13.069Z,33.75
2022-08-19T09:31:13.057Z,39.38
2022-08-19T09:32:26.329Z,39.38
2022-08-19T09:33:13.060Z,39.38
2022-08-19T09:34:21.022Z,45.00
2022-08-19T09:35:13.038Z,45.00
2022-08-19T09:36:13.067Z,45.00
2022-08-19T09:37:13.044Z,45.00
2022-08-19T09:38:13.036Z,50.63
2022-08-19T09:39:16.208Z,50.63
2022-08-19T09:40:13.474Z,50.63
2022-08-19T09:41:13.023Z,56.25
2022-08-19T09:42:16.681Z,56.25
2022-08-19T09:43:13.569Z,61.88
2022-08-19T09:44:13.013Z,61.88
2022-08-19T09:45:13.053Z,61.88
2022-08-19T09:46:15.733Z,56.25
2022-08-19T09:47:12.991Z,56.25
2022-08-19T09:48:19.066Z,50.63
2022-08-19T09:49:13.418Z,50.63
2022-08-19T09:50:16.502Z,45.00
2022-08-19T09:51:12.976Z,45.00
2022-08-19T09:52:13.600Z,45.00
2022-08-19T09:53:13.175Z,45.00
2022-08-19T09:54:12.983Z,45.00
2022-08-19T09:55:13.079Z,45.00
2022-08-19T09:56:12.966Z,45.00
2022-08-19T09:57:12.961Z,45.00
2022-08-19T09:58:12.967Z,39.38
2022-08-19T09:59:13.169Z,39.38
2022-08-19T10:00:12.951Z,33.75
2022-08-19T10:01:13.043Z,28.13
2022-08-19T10:02:13.166Z,28.13
2022-08-19T10:03:12.934Z,22.50
2022-08-19T10:04:20.084Z,22.50
2022-08-19T10:05:12.973Z,16.88
2022-08-19T10:06:14.962Z,16.88
2022-08-19T10:07:12.914Z,16.88
2022-08-19T10:08:13.341Z,16.88
2022-08-19T10:09:12.915Z,16.88
2022-08-19T10:10:12.890Z,16.88
2022-08-19T10:11:27.167Z,16.88
2022-08-19T10:12:12.903Z,16.88
2022-08-19T10:13:12.887Z,22.50
2022-08-19T10:14:12.902Z,28.13
2022-08-19T10:15:12.955Z,33.75
2022-08-19T10:16:12.876Z,39.38
2022-08-19T10:17:19.852Z,39.38
2022-08-19T10:18:12.869Z,45.00
2022-08-19T10:19:12.871Z,45.00
2022-08-19T10:20:12.896Z,45.00
2022-08-19T10:21:12.848Z,39.38
2022-08-19T10:22:12.887Z,45.00
2022-08-19T10:23:12.851Z,45.00
2022-08-19T10:24:12.848Z,45.00
2022-08-19T10:25:12.862Z,50.63
2022-08-19T10:26:12.902Z,50.63
2022-08-19T10:27:12.829Z,56.25
2022-08-19T10:28:12.820Z,56.25
2022-08-19T10:29:12.816Z,61.88
2022-08-19T10:30:12.844Z,61.88
2022-08-19T10:31:12.833Z,61.88
2022-08-19T10:32:12.812Z,56.25
2022-08-19T10:33:12.822Z,56.25
2022-08-19T10:34:27.140Z,50.63
2022-08-19T10:35:12.838Z,50.63
2022-08-19T10:36:12.773Z,45.00
2022-08-19T10:37:14.420Z,45.00
2022-08-19T10:38:12.761Z,39.38
2022-08-19T10:39:12.801Z,39.38
2022-08-19T10:40:12.889Z,39.38
2022-08-19T10:41:12.764Z,39.38
2022-08-19T10:42:12.783Z,39.38
2022-08-19T10:43:12.779Z,33.75
2022-08-19T10:44:13.868Z,33.75
2022-08-19T10:45:12.805Z,33.75
2022-08-19T10:46:14.199Z,39.38
2022-08-19T10:47:17.760Z,39.38
2022-08-19T10:48:12.742Z,39.38
2022-08-19T10:49:12.921Z,39.38
2022-08-19T10:50:12.794Z,39.38
2022-08-19T10:51:22.725Z,39.38
2022-08-19T10:52:12.729Z,39.38
2022-08-19T10:53:12.702Z,45.00
2022-08-19T10:54:12.779Z,45.00
2022-08-19T10:55:12.768Z,45.00
2022-08-19T10:56:12.773Z,50.63
2022-08-19T10:57:12.742Z,50.63
2022-08-19T10:58:12.708Z,50.63
2022-08-19T10:59:12.693Z,56.25
2022-08-19T11:00:12.745Z,56.25
2022-08-19T11:01:12.720Z,56.25
2022-08-19T11:02:12.672Z,56.25
2022-08-19T11:03:12.670Z,56.25
2022-08-19T11:04:12.647Z,56.25
2022-08-19T11:05:13.719Z,56.25
2022-08-19T11:06:12.655Z,56.25
2022-08-19T11:07:12.660Z,50.63
2022-08-19T11:08:22.479Z,50.63
2022-08-19T11:09:12.651Z,45.00
2022-08-19T11:10:13.219Z,45.00
2022-08-19T11:11:12.673Z,45.00
2022-08-19T11:12:12.634Z,45.00
2022-08-19T11:13:12.616Z,45.00
2022-08-19T11:14:12.625Z,45.00
2022-08-19T11:15:12.623Z,45.00
2022-08-19T11:16:12.609Z,50.63
2022-08-19T11:17:12.635Z,50.63
2022-08-19T11:18:13.403Z,45.00
2022-08-19T11:19:12.617Z,45.00
2022-08-19T11:20:12.595Z,45.00
2022-08-19T11:21:12.605Z,45.00
2022-08-19T11:22:12.610Z,45.00
2022-08-19T11:23:12.598Z,45.00
2022-08-19T11:24:12.611Z,45.00
2022-08-19T11:25:12.561Z,45.00
2022-08-19T11:26:12.585Z,45.00
2022-08-19T11:27:12.586Z,50.63
2022-08-19T11:28:12.584Z,56.25
2022-08-19T11:29:12.574Z,56.25
2022-08-19T11:30:13.244Z,56.25
2022-08-19T11:31:12.559Z,56.25
2022-08-19T11:32:12.544Z,61.88
2022-08-19T11:33:12.558Z,50.63
2022-08-19T11:34:12.530Z,50.63
2022-08-19T11:35:12.520Z,50.63
2022-08-19T11:36:14.984Z,50.63
2022-08-19T11:37:12.562Z,50.63
2022-08-19T11:38:12.522Z,50.63
2022-08-19T11:39:12.544Z,50.63
2022-08-19T11:40:12.575Z,56.25
2022-08-19T11:41:12.532Z,56.25
2022-08-19T11:42:12.524Z,61.88
2022-08-19T11:43:12.514Z,67.50
2022-08-19T11:44:12.493Z,78.75
2022-08-19T11:45:12.527Z,84.38
2022-08-19T11:46:12.469Z,84.38
2022-08-19T11:47:12.495Z,84.38
2022-08-19T11:48:12.482Z,90.00
2022-08-19T11:49:14.167Z,95.63
2022-08-19T11:50:12.482Z,101.25
2022-08-19T11:51:12.452Z,101.25
2022-08-19T11:52:12.467Z,106.88
2022-08-19T11:53:12.453Z,106.88
2022-08-19T11:54:12.436Z,112.50
2022-08-19T11:55:12.452Z,112.50
2022-08-19T11:56:12.467Z,112.50
2022-08-19T11:57:12.518Z,118.13
2022-08-19T11:58:18.599Z,118.13
2022-08-19T11:59:14.769Z,123.75
2022-08-19T12:00:12.430Z,123.75
2022-08-19T12:01:12.447Z,129.38
2022-08-19T12:02:12.456Z,129.38
2022-08-19T12:03:12.400Z,129.38
2022-08-19T12:04:12.484Z,129.38
2022-08-19T12:05:13.263Z,129.38
2022-08-19T12:06:12.389Z,129.38
2022-08-19T12:08:12.429Z,129.38
2022-08-19T12:09:12.393Z,129.38
2022-08-19T12:10:12.415Z,135.00
2022-08-19T12:11:12.581Z,135.00
2022-08-19T12:12:12.374Z,135.00
2022-08-19T12:13:12.569Z,129.38
2022-08-19T12:14:14.716Z,129.38
2022-08-19T12:15:12.366Z,129.38
2022-08-19T12:16:12.345Z,129.38
2022-08-19T12:17:12.373Z,129.38
2022-08-19T12:18:12.356Z,129.38
2022-08-19T12:19:12.360Z,123.75
2022-08-19T12:20:12.362Z,123.75
2022-08-19T12:21:12.341Z,123.75
2022-08-19T12:22:12.363Z,129.38
2022-08-19T12:23:12.361Z,118.13
2022-08-19T12:24:12.332Z,118.13
2022-08-19T12:25:12.336Z,118.13
2022-08-19T12:26:12.321Z,118.13
2022-08-19T12:27:12.620Z,118.13
2022-08-19T12:28:12.335Z,118.13
2022-08-19T12:29:12.338Z,118.13
2022-08-19T12:30:12.331Z,118.13
2022-08-19T12:31:12.306Z,118.13
2022-08-19T12:32:12.465Z,123.75
2022-08-19T12:33:12.307Z,129.38
2022-08-19T12:34:12.329Z,135.00
2022-08-19T12:35:12.322Z,146.25
2022-08-19T12:36:12.301Z,146.25
2022-08-19T12:37:12.311Z,151.88
2022-08-19T12:38:12.291Z,151.88
2022-08-19T12:39:12.276Z,151.88
2022-08-19T12:40:12.327Z,151.88
2022-08-19T12:41:12.300Z,151.88
2022-08-19T12:42:12.255Z,151.88
2022-08-19T12:43:12.310Z,151.88
2022-08-19T12:44:12.256Z,151.88
2022-08-19T12:45:12.250Z,146.25
2022-08-19T12:46:12.255Z,140.63
2022-08-19T12:47:12.246Z,129.38
2022-08-19T12:48:32.998Z,123.75
2022-08-19T12:49:12.240Z,118.13
2022-08-19T12:50:12.257Z,118.13
2022-08-19T12:51:12.248Z,118.13
2022-08-19T12:52:12.231Z,118.13
2022-08-19T12:53:12.217Z,112.50
2022-08-19T12:54:12.232Z,112.50
2022-08-19T12:55:12.224Z,112.50
2022-08-19T12:56:45.469Z,112.50
2022-08-19T12:57:12.249Z,112.50
2022-08-19T12:58:12.210Z,112.50
2022-08-19T12:59:12.393Z,112.50
2022-08-19T13:00:12.225Z,112.50
2022-08-19T13:01:12.285Z,112.50
2022-08-19T13:02:12.224Z,112.50
2022-08-19T13:03:12.209Z,112.50